Time;durP1;ratioP1;P1;durP2;ratioP2;P2;SDS_P1;SDS_P2;PMS_P1;PMS_P2;Temp;Humidity;BMP_temperature;BMP_pressure;BME280_temperature;BME280_humidity;BME280_pressure;Samples;Min_cycle;Max_cycle;Signal;HPM_P1;HPM_P2
2021/01/24 00:02:24;;;;;;;19.85;10.07;;;;;;;-0.45;53.84;99388.53;5074044;28;20119;-71
2021/01/24 00:04:52;;;;;;;18.45;9.73;;;;;;;-0.36;53.96;99394.31;5077462;28;20042;-71
2021/01/24 00:07:18;;;;;;;20.08;10.38;;;;;;;-0.41;53.77;99396.13;5067158;28;20024;-72
2021/01/24 00:09:43;;;;;;;23.95;11.00;;;;;;;-0.47;53.98;99397.97;5074064;28;20485;-71
2021/01/24 00:12:09;;;;;;;19.50;10.85;;;;;;;-0.53;54.22;99405.78;5078522;28;20035;-71
2021/01/24 00:14:36;;;;;;;20.27;11.02;;;;;;;-0.58;54.25;99399.00;5075673;28;20064;-71
2021/01/24 00:17:01;;;;;;;17.60;10.27;;;;;;;-0.60;54.21;99398.19;5075049;28;20552;-71
2021/01/24 00:19:27;;;;;;;22.45;10.95;;;;;;;-0.58;54.34;99404.13;5067973;28;20040;-71
2021/01/24 00:21:52;;;;;;;27.42;11.23;;;;;;;-0.58;54.33;99401.56;5075070;28;20032;-71
2021/01/24 00:24:18;;;;;;;17.63;9.63;;;;;;;-0.44;53.82;99400.47;5071913;28;20024;-71
2021/01/24 00:26:43;;;;;;;22.23;10.18;;;;;;;-0.47;53.55;99392.84;5070936;28;20060;-71
2021/01/24 00:29:09;;;;;;;23.15;11.20;;;;;;;-0.58;53.74;99391.28;5070727;28;20426;-71
2021/01/24 00:31:34;;;;;;;21.25;12.70;;;;;;;-0.64;53.78;99394.00;5066112;28;20033;-71
2021/01/24 00:34:00;;;;;;;22.65;11.65;;;;;;;-0.56;53.64;99392.13;5076423;28;20119;-71
2021/01/24 00:36:25;;;;;;;24.25;11.13;;;;;;;-0.48;53.66;99393.69;5068966;28;20059;-71
2021/01/24 00:38:51;;;;;;;26.58;13.02;;;;;;;-0.59;53.68;99391.34;5052155;28;20053;-71
2021/01/24 00:41:17;;;;;;;30.20;14.27;;;;;;;-0.66;54.05;99384.59;5074168;28;20378;-71
2021/01/24 00:43:42;;;;;;;31.92;14.88;;;;;;;-0.59;53.88;99399.03;5070920;28;20060;-71
2021/01/24 00:46:08;;;;;;;28.02;12.43;;;;;;;-0.58;53.73;99395.59;5075165;28;20693;-71
2021/01/24 00:48:35;;;;;;;23.27;12.07;;;;;;;-0.61;53.48;99388.78;5052588;28;20085;-71
2021/01/24 00:51:01;;;;;;;21.08;11.70;;;;;;;-0.65;53.73;99387.16;5077892;28;20059;-71
2021/01/24 00:53:27;;;;;;;21.30;11.05;;;;;;;-0.60;53.59;99390.47;5060610;28;20064;-71
2021/01/24 00:55:53;;;;;;;21.35;11.13;;;;;;;-0.61;53.23;99387.97;5073228;28;20115;-71
2021/01/24 00:58:19;;;;;;;25.65;12.18;;;;;;;-0.73;53.69;99383.88;5066561;28;20398;-71
2021/01/24 01:00:44;;;;;;;26.63;13.18;;;;;;;-0.75;53.79;99385.59;5073362;28;20029;-71
2021/01/24 01:03:11;;;;;;;33.05;15.85;;;;;;;-0.82;53.81;99389.16;5075664;28;20421;-71
2021/01/24 01:05:38;;;;;;;24.73;12.18;;;;;;;-0.85;54.12;99389.22;5069495;28;20031;-71
2021/01/24 01:08:04;;;;;;;22.05;11.05;;;;;;;-0.80;53.85;99387.41;5076341;28;20077;-71
2021/01/24 01:10:30;;;;;;;26.52;11.30;;;;;;;-0.85;54.15;99389.22;5067187;28;20025;-71
2021/01/24 01:12:56;;;;;;;24.77;12.88;;;;;;;-0.87;54.43;99396.09;5071445;28;20776;-71
2021/01/24 01:15:23;;;;;;;23.40;11.77;;;;;;;-0.80;54.05;99397.69;5070157;28;20029;-71
2021/01/24 01:17:49;;;;;;;20.38;11.18;;;;;;;-0.77;53.94;99398.47;5069546;28;20028;-71
2021/01/24 01:20:14;;;;;;;23.40;12.38;;;;;;;-0.82;54.03;99407.13;5076106;28;20714;-71
2021/01/24 01:22:40;;;;;;;28.42;13.80;;;;;;;-0.87;54.35;99411.47;5063207;28;20545;-71
2021/01/24 01:25:06;;;;;;;26.80;12.68;;;;;;;-0.94;54.53;99404.75;5068609;28;20035;-71
2021/01/24 01:27:31;;;;;;;27.83;13.38;;;;;;;-0.92;54.50;99416.69;5064566;28;20033;-71
2021/01/24 01:29:56;;;;;;;22.50;12.27;;;;;;;-0.88;54.51;99408.06;5047330;28;20478;-71
2021/01/24 01:32:22;;;;;;;22.35;12.93;;;;;;;-0.84;54.30;99406.28;5065546;28;20024;-71
2021/01/24 01:34:48;;;;;;;25.13;12.77;;;;;;;-0.83;54.18;99413.97;5067273;28;20037;-71
2021/01/24 01:37:13;;;;;;;23.83;12.25;;;;;;;-0.91;54.52;99409.84;5068802;28;20066;-71
2021/01/24 01:39:39;;;;;;;25.98;12.68;;;;;;;-0.91;54.51;99405.53;5070861;28;20032;-72
2021/01/24 01:42:14;;;;;;;27.77;13.88;;;;;;;-0.88;54.51;99402.94;5071432;28;20033;-71
2021/01/24 01:44:41;;;;;;;25.15;12.10;;;;;;;-0.86;54.37;99408.03;5085173;28;20056;-72
2021/01/24 01:47:09;;;;;;;25.38;12.70;;;;;;;-0.90;54.21;99406.41;5067741;28;20027;-71
2021/01/24 01:49:34;;;;;;;21.88;11.68;;;;;;;-0.83;54.10;99408.00;5069978;28;20028;-71
2021/01/24 01:52:00;;;;;;;25.45;12.48;;;;;;;-0.82;53.91;99401.97;5067623;28;20044;-71
2021/01/24 01:54:26;;;;;;;21.55;11.10;;;;;;;-0.84;53.82;99406.28;5066153;28;20036;-71
2021/01/24 01:56:53;;;;;;;17.73;9.48;;;;;;;-0.85;53.83;99407.19;5064061;28;20041;-71
2021/01/24 01:59:19;;;;;;;22.67;9.10;;;;;;;-0.91;53.88;99410.66;5064241;28;20027;-71
2021/01/24 02:01:45;;;;;;;17.70;9.50;;;;;;;-0.97;53.90;99406.50;5070896;28;20033;-71
2021/01/24 02:04:19;;;;;;;19.48;9.43;;;;;;;-1.06;54.02;99411.78;5069655;28;20074;-71
2021/01/24 02:06:52;;;;;;;19.08;9.30;;;;;;;-1.06;54.01;99416.91;5057131;28;20034;-71
2021/01/24 02:09:28;;;;;;;19.15;10.02;;;;;;;-1.14;53.94;99418.69;5055748;28;20048;-71
2021/01/24 02:12:11;;;;;;;19.42;9.75;;;;;;;-1.16;53.89;99417.88;5040824;28;20037;-71
2021/01/24 02:14:39;;;;;;;;;;;;;;;-1.11;53.87;99418.66;5056098;28;20041;-72
2021/01/24 02:17:08;;;;;;;17.25;9.70;;;;;;;-1.04;53.67;99416.88;5066804;28;19920;-71
2021/01/24 02:20:04;;;;;;;21.48;9.23;;;;;;;-1.10;54.00;99420.34;5066001;28;20039;-71
2021/01/24 02:22:33;;;;;;;17.10;8.43;;;;;;;-1.19;54.35;99410.25;5063831;28;20131;-71
2021/01/24 02:25:35;;;;;;;22.65;11.35;;;;;;;-1.19;54.25;99416.22;5069738;28;20712;-71
2021/01/24 02:28:18;;;;;;;15.98;10.20;;;;;;;-1.14;54.16;99418.69;5045782;28;20067;-71
2021/01/24 02:30:44;;;;;;;15.82;9.15;;;;;;;-1.11;54.06;99417.81;5064328;28;20728;-71
2021/01/24 02:33:14;;;;;;;20.92;9.13;;;;;;;-1.11;53.98;99421.22;5069340;28;20058;-70
2021/01/24 02:35:47;;;;;;;26.25;12.10;;;;;;;-1.17;54.09;99426.44;5060930;28;20025;-71
2021/01/24 02:38:14;;;;;;;24.10;11.93;;;;;;;-1.13;54.27;99425.50;5068476;28;20033;-70
2021/01/24 02:40:41;;;;;;;21.23;11.82;;;;;;;-1.20;54.17;99429.03;5069794;28;20024;-71
2021/01/24 02:43:11;;;;;;;23.38;12.32;;;;;;;-1.15;53.94;99434.97;5070115;28;20107;-71
2021/01/24 02:45:41;;;;;;;26.00;12.77;;;;;;;-1.17;54.16;99429.84;5067216;28;20029;-71
2021/01/24 02:48:09;;;;;;;20.48;12.27;;;;;;;-1.17;53.87;99418.75;5065618;28;20036;-71
2021/01/24 02:50:35;;;;;;;24.58;12.40;;;;;;;-1.25;54.24;99429.09;5068655;28;20127;-71
2021/01/24 02:53:02;;;;;;;23.58;11.18;;;;;;;-1.13;53.65;99430.63;5067559;28;20138;-71
2021/01/24 02:55:28;;;;;;;21.55;11.90;;;;;;;-1.12;53.69;99427.22;5066041;28;20529;-70
2021/01/24 02:57:55;;;;;;;21.67;11.38;;;;;;;-1.15;53.71;99434.09;5065406;28;20028;-71
2021/01/24 03:00:21;;;;;;;25.23;12.25;;;;;;;-1.27;53.78;99432.56;5067594;28;20036;-71
2021/01/24 03:02:47;;;;;;;19.80;11.25;;;;;;;-1.30;53.84;99433.47;5083617;28;20204;-71
2021/01/24 03:05:13;;;;;;;22.20;11.82;;;;;;;-1.28;53.59;99431.72;5064019;28;20028;-71
2021/01/24 03:07:40;;;;;;;21.23;9.80;;;;;;;-1.23;53.56;99434.22;5064871;28;20531;-70
2021/01/24 03:10:06;;;;;;;24.52;12.23;;;;;;;-1.31;53.59;99436.88;5076158;28;20036;-71
2021/01/24 03:12:36;;;;;;;23.00;12.07;;;;;;;-1.42;53.64;99429.38;5078112;28;20440;-71
2021/01/24 03:15:04;;;;;;;21.10;11.88;;;;;;;-1.45;53.67;99433.69;5068368;28;20036;-70
2021/01/24 03:17:34;;;;;;;25.98;10.82;;;;;;;-1.38;53.54;99428.44;5073558;28;20417;-70
2021/01/24 03:20:03;;;;;;;21.80;11.63;;;;;;;-1.45;53.62;99437.06;5070137;28;21025;-71
2021/01/24 03:22:29;;;;;;;21.15;10.57;;;;;;;-1.39;53.26;99439.56;5073619;28;20097;-71
2021/01/24 03:24:55;;;;;;;25.45;11.75;;;;;;;-1.51;53.35;99439.75;5070576;28;20071;-71
2021/01/24 03:27:21;;;;;;;26.45;13.32;;;;;;;-1.47;53.26;99438.81;5072302;28;20033;-71
2021/01/24 03:29:46;;;;;;;25.13;11.93;;;;;;;-1.52;53.28;99447.44;5090703;28;20024;-71
2021/01/24 03:32:12;;;;;;;20.80;10.38;;;;;;;-1.48;53.33;99439.69;5069191;28;20028;-71
2021/01/24 03:34:38;;;;;;;27.30;13.15;;;;;;;-1.55;53.43;99440.66;5066023;28;20040;-71
2021/01/24 03:37:03;;;;;;;18.77;11.63;;;;;;;-1.57;53.48;99444.94;5066266;28;20036;-71
2021/01/24 03:39:29;;;;;;;26.05;12.63;;;;;;;-1.40;53.27;99443.00;5076311;28;20036;-71
2021/01/24 03:41:54;;;;;;;23.90;12.32;;;;;;;-1.33;53.01;99448.03;5076235;28;20025;-71
2021/01/24 03:44:20;;;;;;;22.95;12.05;;;;;;;-1.41;52.74;99443.88;5080559;28;20028;-71
2021/01/24 03:46:45;;;;;;;22.65;12.55;;;;;;;-1.50;52.83;99445.72;5064970;28;20028;-71
2021/01/24 03:49:11;;;;;;;22.23;11.18;;;;;;;-1.52;52.83;99452.56;5068924;28;20035;-71
2021/01/24 03:51:37;;;;;;;21.08;10.40;;;;;;;-1.62;53.07;99457.81;5069389;28;20597;-72
2021/01/24 03:54:02;;;;;;;22.40;11.20;;;;;;;-1.72;53.08;99452.81;5069046;28;20055;-71
2021/01/24 03:56:28;;;;;;;18.35;10.60;;;;;;;-1.73;53.31;99453.66;5067967;28;20119;-71
2021/01/24 03:58:53;;;;;;;26.00;11.52;;;;;;;-1.76;53.23;99458.84;5070076;28;20032;-71
2021/01/24 04:01:19;;;;;;;18.73;9.02;;;;;;;-1.77;53.17;99460.56;5077484;28;20403;-71
2021/01/24 04:03:44;;;;;;;22.92;10.65;;;;;;;-1.77;53.41;99464.84;5068271;28;20028;-71
2021/01/24 04:06:10;;;;;;;20.55;11.80;;;;;;;-1.63;53.12;99468.91;5070386;28;20090;-71
2021/01/24 04:08:35;;;;;;;17.63;10.27;;;;;;;-1.50;52.91;99461.94;5071775;28;20032;-71
2021/01/24 04:11:01;;;;;;;28.50;11.55;;;;;;;-1.64;53.05;99458.72;5068949;28;20039;-71
2021/01/24 04:13:27;;;;;;;19.52;10.50;;;;;;;-1.71;53.47;99459.63;5074362;28;20484;-71
2021/01/24 04:15:53;;;;;;;22.23;10.52;;;;;;;-1.63;53.46;99460.38;5073795;28;20028;-71
2021/01/24 04:18:18;;;;;;;20.05;9.65;;;;;;;-1.55;53.59;99457.72;5075208;28;20537;-71
2021/01/24 04:20:44;;;;;;;21.92;10.90;;;;;;;-1.46;53.68;99455.91;5067648;28;20055;-71
2021/01/24 04:23:09;;;;;;;18.42;10.50;;;;;;;-1.33;53.79;99453.16;5068965;28;20040;-71
2021/01/24 04:25:35;;;;;;;22.85;11.77;;;;;;;-1.18;53.72;99448.66;5070404;28;20107;-71
2021/01/24 04:28:00;;;;;;;18.45;11.07;;;;;;;-1.03;53.91;99449.34;5047812;28;20063;-71
2021/01/24 04:30:26;;;;;;;21.27;10.88;;;;;;;-0.99;53.51;99449.28;5073288;28;20093;-71
2021/01/24 04:32:52;;;;;;;22.65;12.52;;;;;;;-1.01;53.54;99453.59;5057455;28;20036;-71
2021/01/24 04:35:18;;;;;;;24.65;12.45;;;;;;;-1.06;53.60;99447.69;5067222;28;20028;-71
2021/01/24 04:37:43;;;;;;;24.38;11.57;;;;;;;-1.06;53.81;99450.25;5063626;28;20124;-71
2021/01/24 04:40:09;;;;;;;24.10;11.52;;;;;;;-1.03;53.89;99452.75;5068752;28;20042;-71
2021/01/24 04:42:36;;;;;;;27.45;12.60;;;;;;;-1.01;53.93;99451.03;5068737;28;20541;-72
2021/01/24 04:45:03;;;;;;;22.63;11.43;;;;;;;-0.94;54.02;99444.06;5076235;28;20489;-71
2021/01/24 04:47:29;;;;;;;24.52;12.60;;;;;;;-0.78;53.85;99450.66;5071598;28;20059;-71
2021/01/24 04:49:54;;;;;;;24.95;11.00;;;;;;;-0.67;53.71;99454.78;5067604;28;20115;-71
2021/01/24 04:52:21;;;;;;;26.35;11.90;;;;;;;-0.75;53.41;99452.31;5064855;28;20067;-71
2021/01/24 04:54:48;;;;;;;22.50;11.88;;;;;;;-1.04;53.99;99461.34;5074644;28;20616;-71
2021/01/24 04:57:13;;;;;;;20.75;11.13;;;;;;;-0.98;54.18;99460.38;5063827;28;20040;-71
2021/01/24 04:59:39;;;;;;;24.88;13.65;;;;;;;-0.78;53.88;99467.78;5061218;28;20044;-71
2021/01/24 05:02:09;;;;;;;22.75;11.20;;;;;;;-0.69;53.81;99459.91;5066866;28;20025;-71
2021/01/24 05:04:35;;;;;;;25.30;12.70;;;;;;;-0.69;53.59;99461.66;5069327;28;20662;-71
2021/01/24 05:07:00;;;;;;;22.27;12.90;;;;;;;-0.77;53.55;99454.09;5074088;28;20078;-71
2021/01/24 05:09:26;;;;;;;21.65;11.20;;;;;;;-0.69;53.48;99459.09;5076210;28;20044;-71
2021/01/24 05:11:52;;;;;;;18.98;10.45;;;;;;;-0.74;53.29;99453.19;5063106;28;20661;-71
2021/01/24 05:14:24;;;;;;;22.40;12.48;;;;;;;-0.93;53.34;99455.19;5071285;28;20129;-72
2021/01/24 05:16:50;;;;;;;;;;;;;;;-0.94;53.36;99458.63;5074907;28;20031;-71
2021/01/24 05:19:16;;;;;;;23.85;10.88;;;;;;;-1.08;53.18;99448.56;5070525;28;19920;-71
2021/01/24 05:21:42;;;;;;;25.98;10.93;;;;;;;-1.14;53.41;99454.59;5059412;28;20037;-71
2021/01/24 05:24:12;;;;;;;22.92;10.93;;;;;;;-1.15;53.29;99463.19;5068122;28;20032;-71
2021/01/24 05:26:38;;;;;;;16.77;10.45;;;;;;;-1.17;53.10;99465.75;5073511;28;20111;-71
2021/01/24 05:29:04;;;;;;;23.73;11.98;;;;;;;-1.31;53.15;99462.50;5075266;28;20028;-72
2021/01/24 05:31:30;;;;;;;21.65;11.30;;;;;;;-1.33;53.13;99459.16;5068222;28;20070;-71
2021/01/24 05:33:57;;;;;;;23.80;12.23;;;;;;;-1.40;53.28;99460.94;5076640;28;20302;-71
2021/01/24 05:36:23;;;;;;;21.45;11.77;;;;;;;-1.41;53.14;99463.53;5067763;28;20059;-71
2021/01/24 05:38:49;;;;;;;21.55;11.80;;;;;;;-1.39;53.36;99472.88;5050943;28;20069;-71
2021/01/24 05:41:14;;;;;;;24.00;10.77;;;;;;;-1.36;53.57;99463.47;5067727;28;20032;-71
2021/01/24 05:43:40;;;;;;;22.23;11.20;;;;;;;-1.30;53.21;99468.50;5057661;28;20035;-71
2021/01/24 05:46:06;;;;;;;20.38;11.05;;;;;;;-1.41;53.42;99466.94;5073532;28;20028;-71
2021/01/24 05:48:34;;;;;;;22.38;11.98;;;;;;;-1.47;53.47;99467.00;5076798;28;20040;-71
2021/01/24 05:51:05;;;;;;;23.63;11.48;;;;;;;-1.54;53.62;99473.06;5075879;28;20031;-71
2021/01/24 05:53:38;;;;;;;22.70;11.68;;;;;;;-1.54;53.97;99470.53;5066547;28;20404;-71
2021/01/24 05:56:09;;;;;;;23.30;12.23;;;;;;;-1.46;53.85;99476.41;5068481;28;20033;-71
2021/01/24 05:58:34;;;;;;;23.00;12.35;;;;;;;-1.40;53.58;99476.34;5066089;28;20047;-71
2021/01/24 06:01:00;;;;;;;21.58;11.07;;;;;;;-1.40;53.54;99473.78;5067577;28;20087;-71
2021/01/24 06:03:26;;;;;;;28.05;13.60;;;;;;;-1.50;53.92;99467.06;5062287;28;20128;-71
2021/01/24 06:05:51;;;;;;;22.70;11.57;;;;;;;-1.45;54.14;99472.13;5068204;28;20757;-71
2021/01/24 06:08:17;;;;;;;28.63;11.77;;;;;;;-1.50;53.81;99474.75;5061356;28;20059;-71
2021/01/24 06:10:43;;;;;;;23.67;12.07;;;;;;;-1.48;53.62;99472.16;5066097;28;20037;-71
2021/01/24 06:13:14;;;;;;;22.35;11.75;;;;;;;-1.50;53.63;99472.19;5067903;28;20035;-71
2021/01/24 06:15:41;;;;;;;21.92;10.98;;;;;;;-1.59;53.57;99480.81;5070236;28;20032;-71
2021/01/24 06:18:14;;;;;;;20.75;10.88;;;;;;;-1.60;53.65;99486.84;5072288;28;20063;-71
2021/01/24 06:20:46;;;;;;;19.48;10.18;;;;;;;-1.64;53.63;99484.31;5067750;28;20097;-71
2021/01/24 06:23:19;;;;;;;20.58;11.23;;;;;;;-1.73;53.77;99485.28;5071742;28;20555;-71
2021/01/24 06:25:47;;;;;;;23.60;11.55;;;;;;;-1.78;53.97;99491.31;5065599;28;20033;-71
2021/01/24 06:28:26;;;;;;;22.52;10.85;;;;;;;-1.80;54.16;99492.19;5069648;28;20048;-71
2021/01/24 06:30:52;;;;;;;25.30;12.23;;;;;;;-1.90;54.31;99495.69;5075552;28;21935;-71
2021/01/24 06:33:23;;;;;;;18.02;10.20;;;;;;;-1.76;54.22;99495.53;5078749;28;20042;-71
2021/01/24 06:36:00;;;;;;;21.40;10.27;;;;;;;-1.75;53.87;99496.41;5071685;28;20036;-71
2021/01/24 06:38:37;;;;;;;19.50;9.77;;;;;;;-1.63;53.67;99496.25;5073889;28;20444;-71
2021/01/24 06:41:05;;;;;;;24.10;10.32;;;;;;;-1.72;53.60;99504.91;5073770;28;20024;-71
2021/01/24 06:43:45;;;;;;;24.17;12.48;;;;;;;-1.79;53.69;99500.72;5075519;28;20542;-71
2021/01/24 06:46:26;;;;;;;20.02;10.05;;;;;;;-1.77;53.60;99510.94;5070433;28;20016;-71
2021/01/24 06:48:53;;;;;;;21.15;10.93;;;;;;;-1.86;53.50;99505.06;5055867;28;20293;-71
2021/01/24 06:51:41;;;;;;;22.30;11.30;;;;;;;-1.93;54.07;99515.34;5079697;28;20038;-71
2021/01/24 06:54:26;;;;;;;23.98;11.00;;;;;;;-1.89;53.93;99529.84;5050818;28;20093;-71
2021/01/24 06:56:52;;;;;;;21.92;10.95;;;;;;;-1.74;53.72;99522.00;5068465;28;20078;-71
2021/01/24 06:59:30;;;;;;;17.83;10.35;;;;;;;-1.72;53.54;99527.09;5078498;28;20028;-71
2021/01/24 07:02:33;;;;;;;22.70;11.13;;;;;;;-1.76;53.45;99526.28;5072445;28;20028;-71
2021/01/24 07:05:05;;;;;;;20.45;9.85;;;;;;;-1.85;53.71;99537.47;5074899;28;20024;-71
2021/01/24 07:07:32;;;;;;;23.55;10.27;;;;;;;-1.73;53.39;99545.88;5062965;28;20025;-71
2021/01/24 07:09:58;;;;;;;23.08;11.10;;;;;;;-1.76;53.15;99546.78;5071531;28;20039;-71
2021/01/24 07:12:42;;;;;;;21.33;10.73;;;;;;;-1.92;53.42;99552.94;5061881;28;20047;-71
2021/01/24 07:15:10;;;;;;;20.88;10.35;;;;;;;-1.95;53.46;99550.41;5049875;28;20170;-71
2021/01/24 07:17:37;;;;;;;25.35;12.55;;;;;;;-2.05;53.90;99559.88;5069933;28;20482;-71
2021/01/24 07:20:05;;;;;;;28.30;14.20;;;;;;;-2.10;53.89;99562.47;5079848;28;20048;-71
2021/01/24 07:22:31;;;;;;;23.88;11.43;;;;;;;-2.08;54.01;99557.34;5072577;28;20029;-71
2021/01/24 07:24:57;;;;;;;23.38;10.80;;;;;;;-2.00;53.88;99563.22;5077692;28;20028;-71
2021/01/24 07:27:28;;;;;;;30.10;12.45;;;;;;;-1.93;53.62;99561.44;5063950;28;20051;-72
2021/01/24 07:29:55;;;;;;;27.90;11.18;;;;;;;-1.94;53.63;99570.84;5068619;28;20025;-70
2021/01/24 07:32:22;;;;;;;24.25;11.55;;;;;;;-1.94;53.86;99572.56;5069445;28;20603;-71
2021/01/24 07:34:51;;;;;;;23.65;11.60;;;;;;;-1.88;53.67;99565.69;5080420;28;20482;-71
2021/01/24 07:37:17;;;;;;;27.30;11.95;;;;;;;-1.90;53.96;99569.97;5051776;28;20087;-70
2021/01/24 07:39:44;;;;;;;24.20;12.65;;;;;;;-1.89;53.93;99583.63;5070871;28;20089;-73
2021/01/24 07:42:10;;;;;;;25.67;12.00;;;;;;;-1.84;54.05;99579.31;5071769;28;20058;-71
2021/01/24 07:44:38;;;;;;;25.80;11.93;;;;;;;-1.86;54.07;99581.88;5071770;28;20544;-71
2021/01/24 07:47:05;;;;;;;24.45;10.95;;;;;;;-1.75;53.98;99573.25;5078481;28;20290;-71
2021/01/24 07:49:31;;;;;;;27.52;11.55;;;;;;;-1.64;53.69;99584.25;5068586;28;20450;-71
2021/01/24 07:51:56;;;;;;;20.55;10.20;;;;;;;-1.50;53.56;99584.94;5066768;28;20035;-71
2021/01/24 07:54:23;;;;;;;23.52;11.60;;;;;;;-1.44;53.42;99584.88;5065738;28;20048;-71
2021/01/24 07:56:49;;;;;;;25.55;11.18;;;;;;;-1.50;53.28;99590.06;5066595;28;20062;-71
2021/01/24 07:59:16;;;;;;;25.00;11.30;;;;;;;-1.47;53.36;99590.03;5071623;28;20032;-71
2021/01/24 08:01:43;;;;;;;22.25;10.82;;;;;;;-1.42;53.31;99588.28;5076776;28;20040;-71
2021/01/24 08:04:09;;;;;;;25.92;11.73;;;;;;;-1.31;53.12;99584.72;5066683;28;20036;-71
2021/01/24 08:06:36;;;;;;;18.25;9.90;;;;;;;-1.17;53.16;99590.56;5077405;28;20032;-71
2021/01/24 08:09:07;;;;;;;28.67;14.05;;;;;;;-0.90;52.36;99596.22;5064099;28;20683;-71
2021/01/24 08:11:33;;;;;;;23.02;11.63;;;;;;;-0.84;52.25;99593.56;5066865;28;20055;-71
2021/01/24 08:13:59;;;;;;;24.27;13.07;;;;;;;-0.78;51.95;99596.06;5064652;28;20036;-71
2021/01/24 08:16:47;;;;;;;21.92;11.68;;;;;;;-0.74;51.92;99595.16;5074067;28;20032;-71
2021/01/24 08:19:20;;;;;;;22.17;11.32;;;;;;;-0.62;52.11;99594.97;5074422;28;20737;-71
2021/01/24 08:21:47;;;;;;;25.20;12.40;;;;;;;-0.39;51.65;99597.22;5066185;28;20501;-70
2021/01/24 08:24:13;;;;;;;33.58;14.02;;;;;;;-0.71;51.25;99599.38;5062313;28;20032;-71
2021/01/24 08:26:39;;;;;;;26.40;13.68;;;;;;;-0.61;51.95;99601.81;5057933;28;20084;-71
2021/01/24 08:29:06;;;;;;;27.08;11.25;;;;;;;-0.50;51.69;99611.06;5068876;28;20037;-71
2021/01/24 08:31:33;;;;;;;22.88;12.48;;;;;;;-0.46;51.97;99610.13;5070012;28;20039;-71
2021/01/24 08:33:59;;;;;;;22.15;11.77;;;;;;;-0.45;51.85;99615.25;5072524;28;20427;-71
2021/01/24 08:36:27;;;;;;;23.98;11.55;;;;;;;-0.22;51.91;99614.91;5054100;28;20088;-70
2021/01/24 08:38:56;;;;;;;28.90;13.45;;;;;;;0.12;51.53;99613.50;5069430;28;20044;-71
2021/01/24 08:41:31;;;;;;;28.80;14.45;;;;;;;0.18;51.10;99623.69;5073103;28;20047;-70
2021/01/24 08:44:15;;;;;;;25.63;11.32;;;;;;;-0.23;51.49;99630.34;5072166;28;20032;-71
2021/01/24 08:46:45;;;;;;;23.80;11.90;;;;;;;0.20;51.05;99627.91;5067979;28;20036;-73
2021/01/24 08:49:13;;;;;;;30.65;12.80;;;;;;;0.16;51.10;99628.00;5068511;28;20024;-72
2021/01/24 08:51:48;;;;;;;25.13;10.90;;;;;;;0.13;51.21;99633.22;5045430;28;20021;-70
2021/01/24 08:54:18;;;;;;;27.88;12.55;;;;;;;0.45;51.25;99642.91;5065730;28;20397;-71
2021/01/24 08:56:44;;;;;;;25.55;12.73;;;;;;;0.43;50.74;99642.09;5063611;28;20052;-72
2021/01/24 08:59:20;;;;;;;28.10;13.13;;;;;;;0.80;50.92;99646.56;5079261;28;20043;-72
2021/01/24 09:01:48;;;;;;;27.80;13.68;;;;;;;0.81;49.66;99640.53;5068220;28;20115;-70
2021/01/24 09:04:25;;;;;;;22.60;12.98;;;;;;;0.85;50.07;99644.75;5064633;28;20036;-72
2021/01/24 09:07:13;;;;;;;23.63;12.05;;;;;;;0.83;50.32;99652.47;5064732;28;20035;-71
2021/01/24 09:09:45;;;;;;;33.80;14.25;;;;;;;0.77;50.36;99647.47;5054050;28;20043;-70
2021/01/24 09:12:16;;;;;;;29.45;14.88;;;;;;;1.05;49.55;99646.94;5065264;28;20032;-71
2021/01/24 09:14:42;;;;;;;35.80;15.38;;;;;;;0.84;49.35;99654.19;5073152;28;20980;-71
2021/01/24 09:17:08;;;;;;;27.30;13.98;;;;;;;0.91;51.34;99654.94;5070242;28;20031;-71
2021/01/24 09:19:35;;;;;;;28.23;14.07;;;;;;;0.80;50.24;99668.00;5058580;28;20029;-71
2021/01/24 09:22:01;;;;;;;26.52;11.77;;;;;;;0.41;50.82;99660.13;5063667;28;20032;-71
2021/01/24 09:24:27;;;;;;;21.17;11.15;;;;;;;0.67;51.51;99672.50;5070020;28;20085;-71
2021/01/24 09:26:53;;;;;;;27.80;10.25;;;;;;;0.06;51.82;99673.56;5063891;28;20051;-71
2021/01/24 09:29:18;;;;;;;99.75;15.15;;;;;;;-0.03;51.84;99671.16;5075913;28;20032;-71
2021/01/24 09:31:44;;;;;;;44.70;12.07;;;;;;;0.03;52.36;99671.03;5053340;28;20093;-71
2021/01/24 09:34:10;;;;;;;25.98;11.05;;;;;;;-0.20;53.58;99669.66;5070973;28;20028;-71
2021/01/24 09:36:35;;;;;;;20.60;10.90;;;;;;;0.10;52.97;99675.22;5073300;28;20717;-71
2021/01/24 09:39:02;;;;;;;21.70;11.02;;;;;;;0.31;52.79;99662.88;5071027;28;20029;-72
2021/01/24 09:41:28;;;;;;;74.72;11.07;;;;;;;0.33;51.95;99664.56;5061435;28;20055;-72
2021/01/24 09:43:53;;;;;;;29.95;10.48;;;;;;;0.68;51.90;99669.06;5050434;28;20485;-72
2021/01/24 09:46:19;;;;;;;66.22;13.23;;;;;;;0.01;52.71;99670.19;5071861;28;20439;-71
2021/01/24 09:48:44;;;;;;;24.80;8.63;;;;;;;0.29;52.48;99668.03;5066941;28;20516;-71
2021/01/24 09:51:10;;;;;;;19.33;11.25;;;;;;;0.49;52.20;99671.13;5070306;28;20029;-71
2021/01/24 09:53:36;;;;;;;25.83;10.60;;;;;;;0.66;52.12;99675.13;5072799;28;20039;-71
2021/01/24 09:56:06;;;;;;;18.92;9.88;;;;;;;0.86;51.98;99674.75;5064375;28;20401;-71
2021/01/24 09:58:32;;;;;;;19.77;9.10;;;;;;;1.23;51.07;99672.28;5068733;28;20032;-71
2021/01/24 10:00:58;;;;;;;28.67;10.25;;;;;;;0.82;51.29;99673.13;5074612;28;20048;-71
2021/01/24 10:03:24;;;;;;;43.75;9.77;;;;;;;0.33;52.12;99672.25;5065517;28;20024;-71
2021/01/24 10:05:50;;;;;;;39.03;10.18;;;;;;;0.70;51.30;99669.03;5068170;28;20040;-71
2021/01/24 10:08:16;;;;;;;27.00;9.00;;;;;;;0.80;51.56;99669.72;5074294;28;20063;-71
2021/01/24 10:10:42;;;;;;;19.02;9.10;;;;;;;1.07;51.88;99678.63;5070716;28;20664;-72
2021/01/24 10:13:07;;;;;;;49.45;17.55;;;;;;;0.96;51.62;99678.81;5068063;28;20040;-72
2021/01/24 10:15:33;;;;;;;19.27;9.98;;;;;;;0.64;52.23;99682.03;5074317;28;20056;-72
2021/01/24 10:17:58;;;;;;;22.27;10.90;;;;;;;0.58;52.94;99680.38;5082374;28;20115;-71
2021/01/24 10:20:24;;;;;;;23.60;9.80;;;;;;;0.65;52.20;99678.56;5081151;28;20025;-71
2021/01/24 10:22:49;;;;;;;14.02;7.25;;;;;;;0.99;52.76;99683.94;5055251;28;20078;-72
2021/01/24 10:25:15;;;;;;;56.50;10.07;;;;;;;0.61;52.15;99688.06;5068253;28;20044;-71
2021/01/24 10:27:41;;;;;;;19.58;9.20;;;;;;;0.97;52.90;99687.38;5074792;28;20721;-72
2021/01/24 10:30:07;;;;;;;50.03;8.38;;;;;;;0.29;53.26;99691.19;5083468;28;20064;-71
2021/01/24 10:32:33;;;;;;;19.88;9.55;;;;;;;0.88;52.84;99683.25;5071606;28;20036;-72
2021/01/24 10:34:59;;;;;;;15.70;8.75;;;;;;;1.14;52.65;99684.50;5068621;28;20035;-72
2021/01/24 10:37:24;;;;;;;39.55;8.18;;;;;;;1.14;51.68;99687.06;5074003;28;20070;-71
2021/01/24 10:39:50;;;;;;;19.88;8.18;;;;;;;1.34;51.95;99695.22;5074196;28;20036;-71
2021/01/24 10:42:15;;;;;;;13.52;7.65;;;;;;;0.82;53.32;99691.97;5061575;28;20476;-71
2021/01/24 10:44:41;;;;;;;21.45;8.13;;;;;;;0.47;53.44;99702.88;5070614;28;20115;-72
2021/01/24 10:47:06;;;;;;;20.60;7.72;;;;;;;0.87;52.70;99700.44;5053899;28;20389;-71
2021/01/24 10:49:31;;;;;;;15.00;8.13;;;;;;;1.06;53.02;99700.06;5071765;28;20055;-72
2021/01/24 10:51:57;;;;;;;26.45;10.63;;;;;;;0.94;52.71;99695.19;5080364;28;20055;-72
2021/01/24 10:54:23;;;;;;;17.15;8.70;;;;;;;0.93;52.32;99703.78;5075745;28;20734;-71
2021/01/24 10:56:48;;;;;;;34.22;13.45;;;;;;;0.88;53.41;99706.41;5082389;28;20033;-72
2021/01/24 10:59:14;;;;;;;20.35;9.93;;;;;;;0.83;53.39;99708.22;5078107;28;20296;-71
2021/01/24 11:01:39;;;;;;;18.40;8.95;;;;;;;0.85;53.69;99714.19;5053046;28;20040;-71
2021/01/24 11:04:05;;;;;;;17.15;7.82;;;;;;;0.99;53.00;99719.97;5080325;28;20040;-72
2021/01/24 11:06:30;;;;;;;18.52;9.90;;;;;;;1.11;52.96;99716.28;5065608;28;20021;-72
2021/01/24 11:08:55;;;;;;;17.88;9.27;;;;;;;1.25;52.60;99724.56;5069599;28;20021;-71
2021/01/24 11:11:22;;;;;;;28.35;8.60;;;;;;;0.64;53.51;99720.59;5077184;28;20067;-72
2021/01/24 11:13:48;;;;;;;17.63;8.35;;;;;;;1.21;53.80;99724.66;5067506;28;20409;-71
2021/01/24 11:16:14;;;;;;;20.15;9.18;;;;;;;1.51;52.78;99721.50;5063643;28;20059;-72
2021/01/24 11:18:40;;;;;;;14.00;8.02;;;;;;;1.32;52.49;99717.59;5069106;28;20449;-72
2021/01/24 11:21:05;;;;;;;12.75;7.88;;;;;;;1.66;52.98;99722.06;5069400;28;20037;-71
2021/01/24 11:23:31;;;;;;;15.75;8.52;;;;;;;1.60;52.34;99717.91;5061408;28;20059;-71
2021/01/24 11:25:56;;;;;;;17.60;9.13;;;;;;;1.50;52.32;99716.38;5064363;28;20089;-71